sensor_id;sensor_type;location;lat;lon;timestamp;P1;durP1;ratioP1;P2;durP2;ratioP2
80584;SDS011;70137;56.482;9.154;2024-03-07T00:01:48;28.02;;;12.63;;
80584;SDS011;70137;56.482;9.154;2024-03-07T00:04:14;25.23;;;12.55;;
80584;SDS011;70137;56.482;9.154;2024-03-07T00:06:39;24.25;;;11.48;;
80584;SDS011;70137;56.482;9.154;2024-03-07T00:09:06;25.17;;;11.93;;
80584;SDS011;70137;56.482;9.154;2024-03-07T00:11:32;31.05;;;12.77;;
80584;SDS011;70137;56.482;9.154;2024-03-07T00:13:57;22.35;;;11.65;;
80584;SDS011;70137;56.482;9.154;2024-03-07T00:16:23;26.73;;;11.30;;
80584;SDS011;70137;56.482;9.154;2024-03-07T00:18:48;26.10;;;12.50;;
80584;SDS011;70137;56.482;9.154;2024-03-07T00:21:13;29.73;;;13.85;;
80584;SDS011;70137;56.482;9.154;2024-03-07T00:23:39;24.52;;;12.13;;
80584;SDS011;70137;56.482;9.154;2024-03-07T00:26:04;27.17;;;12.63;;
80584;SDS011;70137;56.482;9.154;2024-03-07T00:28:30;24.75;;;11.50;;
80584;SDS011;70137;56.482;9.154;2024-03-07T00:31:00;21.58;;;11.27;;
80584;SDS011;70137;56.482;9.154;2024-03-07T00:33:25;25.17;;;11.50;;
80584;SDS011;70137;56.482;9.154;2024-03-07T00:35:50;22.40;;;10.20;;
80584;SDS011;70137;56.482;9.154;2024-03-07T00:38:16;23.90;;;10.77;;
80584;SDS011;70137;56.482;9.154;2024-03-07T00:40:41;22.38;;;10.80;;
80584;SDS011;70137;56.482;9.154;2024-03-07T00:43:06;28.17;;;11.18;;
80584;SDS011;70137;56.482;9.154;2024-03-07T00:45:32;20.58;;;10.75;;
80584;SDS011;70137;56.482;9.154;2024-03-07T00:47:58;24.80;;;10.95;;
80584;SDS011;70137;56.482;9.154;2024-03-07T00:50:24;24.75;;;11.23;;
80584;SDS011;70137;56.482;9.154;2024-03-07T00:52:50;22.35;;;10.35;;
80584;SDS011;70137;56.482;9.154;2024-03-07T00:55:15;20.98;;;11.13;;
80584;SDS011;70137;56.482;9.154;2024-03-07T00:57:41;23.95;;;10.70;;
80584;SDS011;70137;56.482;9.154;2024-03-07T01:00:07;26.77;;;11.63;;
80584;SDS011;70137;56.482;9.154;2024-03-07T01:02:39;22.55;;;10.18;;
80584;SDS011;70137;56.482;9.154;2024-03-07T01:05:11;21.88;;;9.95;;
80584;SDS011;70137;56.482;9.154;2024-03-07T01:07:40;22.45;;;10.48;;
80584;SDS011;70137;56.482;9.154;2024-03-07T01:10:06;22.88;;;11.10;;
80584;SDS011;70137;56.482;9.154;2024-03-07T01:12:34;26.48;;;11.30;;
80584;SDS011;70137;56.482;9.154;2024-03-07T01:14:59;20.15;;;10.60;;
80584;SDS011;70137;56.482;9.154;2024-03-07T01:17:25;20.52;;;10.13;;
80584;SDS011;70137;56.482;9.154;2024-03-07T01:19:51;20.40;;;9.95;;
80584;SDS011;70137;56.482;9.154;2024-03-07T01:22:17;21.88;;;10.30;;
80584;SDS011;70137;56.482;9.154;2024-03-07T01:24:42;24.00;;;11.18;;
80584;SDS011;70137;56.482;9.154;2024-03-07T01:27:08;24.27;;;11.13;;
80584;SDS011;70137;56.482;9.154;2024-03-07T01:29:34;23.73;;;10.68;;
80584;SDS011;70137;56.482;9.154;2024-03-07T01:31:59;22.70;;;10.38;;
80584;SDS011;70137;56.482;9.154;2024-03-07T01:34:25;19.92;;;10.30;;
80584;SDS011;70137;56.482;9.154;2024-03-07T01:36:50;26.58;;;10.70;;
80584;SDS011;70137;56.482;9.154;2024-03-07T01:39:16;22.42;;;11.02;;
80584;SDS011;70137;56.482;9.154;2024-03-07T01:41:43;22.55;;;11.50;;
80584;SDS011;70137;56.482;9.154;2024-03-07T01:44:09;25.13;;;11.93;;
80584;SDS011;70137;56.482;9.154;2024-03-07T01:46:34;27.33;;;12.23;;
80584;SDS011;70137;56.482;9.154;2024-03-07T01:49:00;25.90;;;12.90;;
80584;SDS011;70137;56.482;9.154;2024-03-07T01:51:25;36.45;;;15.60;;
80584;SDS011;70137;56.482;9.154;2024-03-07T01:53:52;41.08;;;17.90;;
80584;SDS011;70137;56.482;9.154;2024-03-07T01:56:18;39.10;;;17.88;;
80584;SDS011;70137;56.482;9.154;2024-03-07T01:58:46;37.55;;;17.13;;
80584;SDS011;70137;56.482;9.154;2024-03-07T02:01:12;34.92;;;14.77;;
80584;SDS011;70137;56.482;9.154;2024-03-07T02:03:40;33.15;;;15.35;;
80584;SDS011;70137;56.482;9.154;2024-03-07T02:06:07;37.40;;;17.13;;
80584;SDS011;70137;56.482;9.154;2024-03-07T02:08:33;30.90;;;16.13;;
80584;SDS011;70137;56.482;9.154;2024-03-07T02:10:59;34.15;;;17.08;;
80584;SDS011;70137;56.482;9.154;2024-03-07T02:13:25;31.00;;;15.43;;
80584;SDS011;70137;56.482;9.154;2024-03-07T02:15:51;29.65;;;15.30;;
80584;SDS011;70137;56.482;9.154;2024-03-07T02:18:17;33.17;;;14.95;;
80584;SDS011;70137;56.482;9.154;2024-03-07T02:20:44;31.23;;;13.88;;
80584;SDS011;70137;56.482;9.154;2024-03-07T02:23:11;31.38;;;14.20;;
80584;SDS011;70137;56.482;9.154;2024-03-07T02:25:36;30.02;;;13.80;;
80584;SDS011;70137;56.482;9.154;2024-03-07T02:28:03;25.42;;;12.77;;
80584;SDS011;70137;56.482;9.154;2024-03-07T02:30:29;25.70;;;13.50;;
80584;SDS011;70137;56.482;9.154;2024-03-07T02:32:57;31.20;;;13.00;;
80584;SDS011;70137;56.482;9.154;2024-03-07T02:35:24;24.23;;;12.20;;
80584;SDS011;70137;56.482;9.154;2024-03-07T02:37:50;23.95;;;12.02;;
80584;SDS011;70137;56.482;9.154;2024-03-07T02:40:16;23.77;;;11.52;;
80584;SDS011;70137;56.482;9.154;2024-03-07T02:42:41;23.10;;;11.38;;
80584;SDS011;70137;56.482;9.154;2024-03-07T02:45:08;23.35;;;12.10;;
80584;SDS011;70137;56.482;9.154;2024-03-07T02:47:35;22.02;;;11.05;;
80584;SDS011;70137;56.482;9.154;2024-03-07T02:50:01;23.63;;;11.50;;
80584;SDS011;70137;56.482;9.154;2024-03-07T02:52:26;24.38;;;11.93;;
80584;SDS011;70137;56.482;9.154;2024-03-07T02:54:52;20.10;;;10.10;;
80584;SDS011;70137;56.482;9.154;2024-03-07T02:57:17;26.60;;;11.05;;
80584;SDS011;70137;56.482;9.154;2024-03-07T02:59:43;24.38;;;12.07;;
80584;SDS011;70137;56.482;9.154;2024-03-07T03:02:08;23.45;;;11.68;;
80584;SDS011;70137;56.482;9.154;2024-03-07T03:04:33;27.67;;;11.75;;
80584;SDS011;70137;56.482;9.154;2024-03-07T03:06:59;22.60;;;10.98;;
80584;SDS011;70137;56.482;9.154;2024-03-07T03:09:25;25.35;;;10.90;;
80584;SDS011;70137;56.482;9.154;2024-03-07T03:11:50;22.13;;;10.45;;
80584;SDS011;70137;56.482;9.154;2024-03-07T03:14:16;21.35;;;10.82;;
80584;SDS011;70137;56.482;9.154;2024-03-07T03:16:42;22.00;;;10.80;;
80584;SDS011;70137;56.482;9.154;2024-03-07T03:19:08;21.88;;;10.85;;
80584;SDS011;70137;56.482;9.154;2024-03-07T03:21:34;19.75;;;9.93;;
80584;SDS011;70137;56.482;9.154;2024-03-07T03:24:00;18.75;;;9.63;;
80584;SDS011;70137;56.482;9.154;2024-03-07T03:26:27;22.02;;;11.18;;
80584;SDS011;70137;56.482;9.154;2024-03-07T03:28:53;21.98;;;11.02;;
80584;SDS011;70137;56.482;9.154;2024-03-07T03:31:19;26.42;;;10.48;;
80584;SDS011;70137;56.482;9.154;2024-03-07T03:33:45;21.17;;;10.75;;
80584;SDS011;70137;56.482;9.154;2024-03-07T03:36:10;22.20;;;10.68;;
80584;SDS011;70137;56.482;9.154;2024-03-07T03:38:36;24.52;;;10.48;;
80584;SDS011;70137;56.482;9.154;2024-03-07T03:41:01;21.45;;;11.15;;
80584;SDS011;70137;56.482;9.154;2024-03-07T03:43:27;21.10;;;10.57;;
80584;SDS011;70137;56.482;9.154;2024-03-07T03:45:52;21.45;;;10.80;;
80584;SDS011;70137;56.482;9.154;2024-03-07T03:48:18;22.83;;;11.75;;
80584;SDS011;70137;56.482;9.154;2024-03-07T03:50:43;20.25;;;11.20;;
80584;SDS011;70137;56.482;9.154;2024-03-07T03:53:08;23.08;;;11.10;;
80584;SDS011;70137;56.482;9.154;2024-03-07T03:55:34;23.38;;;10.50;;
80584;SDS011;70137;56.482;9.154;2024-03-07T03:57:59;18.08;;;9.13;;
80584;SDS011;70137;56.482;9.154;2024-03-07T04:00:25;22.15;;;10.60;;
80584;SDS011;70137;56.482;9.154;2024-03-07T04:02:50;20.23;;;9.98;;
80584;SDS011;70137;56.482;9.154;2024-03-07T04:05:17;23.60;;;10.32;;
80584;SDS011;70137;56.482;9.154;2024-03-07T04:07:45;19.27;;;10.68;;
80584;SDS011;70137;56.482;9.154;2024-03-07T04:10:11;24.83;;;10.80;;
80584;SDS011;70137;56.482;9.154;2024-03-07T04:12:38;19.52;;;10.63;;
80584;SDS011;70137;56.482;9.154;2024-03-07T04:15:08;20.38;;;9.93;;
80584;SDS011;70137;56.482;9.154;2024-03-07T04:17:35;19.98;;;9.90;;
80584;SDS011;70137;56.482;9.154;2024-03-07T04:20:02;19.08;;;10.00;;
80584;SDS011;70137;56.482;9.154;2024-03-07T04:22:30;17.73;;;9.48;;
80584;SDS011;70137;56.482;9.154;2024-03-07T04:24:56;19.63;;;9.57;;
80584;SDS011;70137;56.482;9.154;2024-03-07T04:27:22;18.75;;;9.43;;
80584;SDS011;70137;56.482;9.154;2024-03-07T04:29:47;18.27;;;9.80;;
80584;SDS011;70137;56.482;9.154;2024-03-07T04:32:14;23.52;;;10.07;;
80584;SDS011;70137;56.482;9.154;2024-03-07T04:34:40;21.35;;;10.13;;
80584;SDS011;70137;56.482;9.154;2024-03-07T04:37:05;18.58;;;9.35;;
80584;SDS011;70137;56.482;9.154;2024-03-07T04:39:31;19.02;;;10.10;;
80584;SDS011;70137;56.482;9.154;2024-03-07T04:41:59;19.15;;;9.50;;
80584;SDS011;70137;56.482;9.154;2024-03-07T04:44:26;20.92;;;10.85;;
80584;SDS011;70137;56.482;9.154;2024-03-07T04:46:52;22.23;;;10.15;;
80584;SDS011;70137;56.482;9.154;2024-03-07T04:49:21;21.90;;;10.52;;
80584;SDS011;70137;56.482;9.154;2024-03-07T04:51:51;18.83;;;9.55;;
80584;SDS011;70137;56.482;9.154;2024-03-07T04:54:17;18.15;;;9.93;;
80584;SDS011;70137;56.482;9.154;2024-03-07T04:56:44;16.63;;;8.48;;
80584;SDS011;70137;56.482;9.154;2024-03-07T04:59:10;33.25;;;10.70;;
80584;SDS011;70137;56.482;9.154;2024-03-07T05:01:36;15.23;;;8.80;;
80584;SDS011;70137;56.482;9.154;2024-03-07T05:04:02;25.13;;;8.77;;
80584;SDS011;70137;56.482;9.154;2024-03-07T05:06:28;19.92;;;8.70;;
80584;SDS011;70137;56.482;9.154;2024-03-07T05:08:54;15.57;;;8.55;;
80584;SDS011;70137;56.482;9.154;2024-03-07T05:11:19;14.93;;;8.65;;
80584;SDS011;70137;56.482;9.154;2024-03-07T05:13:44;17.08;;;8.38;;
80584;SDS011;70137;56.482;9.154;2024-03-07T05:16:10;63.55;;;11.80;;
80584;SDS011;70137;56.482;9.154;2024-03-07T05:18:35;48.42;;;11.00;;
80584;SDS011;70137;56.482;9.154;2024-03-07T05:21:01;21.25;;;10.38;;
80584;SDS011;70137;56.482;9.154;2024-03-07T05:23:46;20.67;;;9.63;;
80584;SDS011;70137;56.482;9.154;2024-03-07T05:26:11;17.40;;;8.88;;
80584;SDS011;70137;56.482;9.154;2024-03-07T05:28:38;15.75;;;8.57;;
80584;SDS011;70137;56.482;9.154;2024-03-07T05:31:04;18.08;;;9.05;;
80584;SDS011;70137;56.482;9.154;2024-03-07T05:33:30;21.52;;;9.45;;
80584;SDS011;70137;56.482;9.154;2024-03-07T05:35:55;23.30;;;10.55;;
80584;SDS011;70137;56.482;9.154;2024-03-07T05:38:38;25.55;;;11.50;;
80584;SDS011;70137;56.482;9.154;2024-03-07T05:41:04;27.55;;;10.90;;
80584;SDS011;70137;56.482;9.154;2024-03-07T05:43:29;24.38;;;11.05;;
80584;SDS011;70137;56.482;9.154;2024-03-07T05:45:55;22.23;;;10.30;;
80584;SDS011;70137;56.482;9.154;2024-03-07T05:48:21;19.20;;;10.57;;
80584;SDS011;70137;56.482;9.154;2024-03-07T05:50:47;22.55;;;10.20;;
80584;SDS011;70137;56.482;9.154;2024-03-07T05:53:12;22.05;;;10.50;;
80584;SDS011;70137;56.482;9.154;2024-03-07T05:55:37;24.58;;;11.73;;
80584;SDS011;70137;56.482;9.154;2024-03-07T05:58:03;34.60;;;12.27;;
80584;SDS011;70137;56.482;9.154;2024-03-07T06:00:28;54.28;;;13.63;;
80584;SDS011;70137;56.482;9.154;2024-03-07T06:02:53;26.40;;;11.63;;
80584;SDS011;70137;56.482;9.154;2024-03-07T06:05:19;25.60;;;11.52;;
80584;SDS011;70137;56.482;9.154;2024-03-07T06:07:44;29.70;;;11.45;;
80584;SDS011;70137;56.482;9.154;2024-03-07T06:10:14;24.15;;;11.57;;
80584;SDS011;70137;56.482;9.154;2024-03-07T06:12:41;24.60;;;11.07;;
80584;SDS011;70137;56.482;9.154;2024-03-07T06:15:10;20.35;;;9.88;;
80584;SDS011;70137;56.482;9.154;2024-03-07T06:17:36;23.88;;;11.57;;
80584;SDS011;70137;56.482;9.154;2024-03-07T06:20:04;27.25;;;11.13;;
80584;SDS011;70137;56.482;9.154;2024-03-07T06:22:47;31.17;;;12.70;;
80584;SDS011;70137;56.482;9.154;2024-03-07T06:25:13;23.02;;;11.55;;
80584;SDS011;70137;56.482;9.154;2024-03-07T06:27:44;27.05;;;11.68;;
80584;SDS011;70137;56.482;9.154;2024-03-07T06:30:13;26.30;;;11.50;;
80584;SDS011;70137;56.482;9.154;2024-03-07T06:32:41;25.20;;;11.95;;
80584;SDS011;70137;56.482;9.154;2024-03-07T06:35:07;23.13;;;11.20;;
80584;SDS011;70137;56.482;9.154;2024-03-07T06:37:32;24.40;;;12.57;;
80584;SDS011;70137;56.482;9.154;2024-03-07T06:39:58;26.23;;;11.65;;
80584;SDS011;70137;56.482;9.154;2024-03-07T06:42:23;23.67;;;11.70;;
80584;SDS011;70137;56.482;9.154;2024-03-07T06:44:48;28.83;;;14.20;;
80584;SDS011;70137;56.482;9.154;2024-03-07T06:47:14;33.17;;;13.95;;
80584;SDS011;70137;56.482;9.154;2024-03-07T06:49:39;34.78;;;14.38;;
80584;SDS011;70137;56.482;9.154;2024-03-07T06:52:05;27.35;;;13.50;;
80584;SDS011;70137;56.482;9.154;2024-03-07T06:54:31;18.92;;;10.82;;
80584;SDS011;70137;56.482;9.154;2024-03-07T06:56:56;20.42;;;10.50;;
80584;SDS011;70137;56.482;9.154;2024-03-07T06:59:22;20.38;;;10.40;;
80584;SDS011;70137;56.482;9.154;2024-03-07T07:01:47;20.23;;;10.68;;
80584;SDS011;70137;56.482;9.154;2024-03-07T07:04:12;22.73;;;11.52;;
80584;SDS011;70137;56.482;9.154;2024-03-07T07:06:40;20.63;;;10.38;;
80584;SDS011;70137;56.482;9.154;2024-03-07T07:09:08;24.42;;;10.45;;
80584;SDS011;70137;56.482;9.154;2024-03-07T07:11:34;33.88;;;10.73;;
80584;SDS011;70137;56.482;9.154;2024-03-07T07:14:00;73.32;;;12.27;;
80584;SDS011;70137;56.482;9.154;2024-03-07T07:16:27;101.00;;;12.57;;
80584;SDS011;70137;56.482;9.154;2024-03-07T07:18:55;133.93;;;14.45;;
80584;SDS011;70137;56.482;9.154;2024-03-07T07:21:20;159.23;;;14.32;;
80584;SDS011;70137;56.482;9.154;2024-03-07T07:23:46;188.40;;;14.93;;
80584;SDS011;70137;56.482;9.154;2024-03-07T07:26:12;106.13;;;13.55;;
80584;SDS011;70137;56.482;9.154;2024-03-07T07:28:37;93.85;;;12.13;;
80584;SDS011;70137;56.482;9.154;2024-03-07T07:31:03;81.20;;;11.25;;
80584;SDS011;70137;56.482;9.154;2024-03-07T07:33:29;101.00;;;12.30;;
80584;SDS011;70137;56.482;9.154;2024-03-07T07:35:56;85.22;;;11.43;;
80584;SDS011;70137;56.482;9.154;2024-03-07T07:38:22;62.88;;;11.45;;
80584;SDS011;70137;56.482;9.154;2024-03-07T07:40:47;81.00;;;11.07;;
80584;SDS011;70137;56.482;9.154;2024-03-07T07:43:12;75.95;;;11.00;;
80584;SDS011;70137;56.482;9.154;2024-03-07T07:45:38;74.53;;;12.48;;
80584;SDS011;70137;56.482;9.154;2024-03-07T07:48:04;65.35;;;10.90;;
80584;SDS011;70137;56.482;9.154;2024-03-07T07:50:30;50.10;;;9.18;;
80584;SDS011;70137;56.482;9.154;2024-03-07T07:52:58;67.47;;;11.13;;
80584;SDS011;70137;56.482;9.154;2024-03-07T07:55:24;67.00;;;11.65;;
80584;SDS011;70137;56.482;9.154;2024-03-07T07:57:54;57.67;;;11.60;;
80584;SDS011;70137;56.482;9.154;2024-03-07T08:00:26;54.38;;;10.60;;
80584;SDS011;70137;56.482;9.154;2024-03-07T08:05:27;53.90;;;11.13;;
80584;SDS011;70137;56.482;9.154;2024-03-07T08:07:57;70.97;;;11.70;;
80584;SDS011;70137;56.482;9.154;2024-03-07T08:10:25;85.45;;;12.18;;
80584;SDS011;70137;56.482;9.154;2024-03-07T08:12:53;66.90;;;11.68;;
80584;SDS011;70137;56.482;9.154;2024-03-07T08:15:19;65.45;;;12.18;;
80584;SDS011;70137;56.482;9.154;2024-03-07T08:17:45;54.05;;;11.73;;
80584;SDS011;70137;56.482;9.154;2024-03-07T08:20:17;85.22;;;12.00;;
80584;SDS011;70137;56.482;9.154;2024-03-07T08:22:44;36.45;;;12.23;;
80584;SDS011;70137;56.482;9.154;2024-03-07T08:25:13;57.53;;;11.38;;
80584;SDS011;70137;56.482;9.154;2024-03-07T08:27:40;48.58;;;11.50;;
80584;SDS011;70137;56.482;9.154;2024-03-07T08:30:07;46.00;;;10.77;;
80584;SDS011;70137;56.482;9.154;2024-03-07T08:32:38;49.42;;;12.60;;
80584;SDS011;70137;56.482;9.154;2024-03-07T08:35:04;49.75;;;12.13;;
80584;SDS011;70137;56.482;9.154;2024-03-07T08:37:35;55.63;;;12.20;;
80584;SDS011;70137;56.482;9.154;2024-03-07T08:40:01;50.97;;;12.45;;
80584;SDS011;70137;56.482;9.154;2024-03-07T08:42:31;59.63;;;12.27;;
80584;SDS011;70137;56.482;9.154;2024-03-07T08:44:59;74.65;;;12.93;;
80584;SDS011;70137;56.482;9.154;2024-03-07T08:47:25;122.68;;;15.30;;
80584;SDS011;70137;56.482;9.154;2024-03-07T08:49:50;72.68;;;13.45;;
80584;SDS011;70137;56.482;9.154;2024-03-07T08:52:16;68.45;;;14.38;;
80584;SDS011;70137;56.482;9.154;2024-03-07T08:54:41;45.03;;;13.63;;
80584;SDS011;70137;56.482;9.154;2024-03-07T08:57:07;44.70;;;12.80;;
80584;SDS011;70137;56.482;9.154;2024-03-07T08:59:32;34.65;;;12.05;;
80584;SDS011;70137;56.482;9.154;2024-03-07T09:01:58;45.88;;;13.88;;
80584;SDS011;70137;56.482;9.154;2024-03-07T09:04:26;37.35;;;12.00;;
80584;SDS011;70137;56.482;9.154;2024-03-07T09:06:53;30.13;;;12.07;;
80584;SDS011;70137;56.482;9.154;2024-03-07T09:09:19;30.25;;;13.07;;
80584;SDS011;70137;56.482;9.154;2024-03-07T09:11:44;31.15;;;13.18;;
80584;SDS011;70137;56.482;9.154;2024-03-07T09:14:10;33.60;;;13.65;;
80584;SDS011;70137;56.482;9.154;2024-03-07T09:16:36;36.97;;;13.63;;
80584;SDS011;70137;56.482;9.154;2024-03-07T09:19:01;30.42;;;12.68;;
80584;SDS011;70137;56.482;9.154;2024-03-07T09:21:28;31.80;;;12.65;;
80584;SDS011;70137;56.482;9.154;2024-03-07T09:23:53;34.63;;;13.38;;
80584;SDS011;70137;56.482;9.154;2024-03-07T09:26:19;34.85;;;13.60;;
80584;SDS011;70137;56.482;9.154;2024-03-07T09:28:45;36.67;;;13.50;;
80584;SDS011;70137;56.482;9.154;2024-03-07T09:31:11;35.42;;;13.63;;
80584;SDS011;70137;56.482;9.154;2024-03-07T09:33:39;32.88;;;13.90;;
80584;SDS011;70137;56.482;9.154;2024-03-07T09:36:04;33.75;;;13.35;;
80584;SDS011;70137;56.482;9.154;2024-03-07T09:38:31;30.67;;;13.38;;
80584;SDS011;70137;56.482;9.154;2024-03-07T09:40:57;30.75;;;13.60;;
80584;SDS011;70137;56.482;9.154;2024-03-07T09:43:24;30.27;;;13.40;;
80584;SDS011;70137;56.482;9.154;2024-03-07T09:45:52;35.95;;;14.55;;
80584;SDS011;70137;56.482;9.154;2024-03-07T09:48:17;37.72;;;15.27;;
80584;SDS011;70137;56.482;9.154;2024-03-07T09:50:44;25.80;;;11.93;;
80584;SDS011;70137;56.482;9.154;2024-03-07T09:53:15;25.77;;;12.82;;
80584;SDS011;70137;56.482;9.154;2024-03-07T09:55:42;28.70;;;12.40;;
80584;SDS011;70137;56.482;9.154;2024-03-07T09:58:08;28.58;;;12.82;;
80584;SDS011;70137;56.482;9.154;2024-03-07T10:00:38;24.02;;;11.38;;
80584;SDS011;70137;56.482;9.154;2024-03-07T10:03:06;26.98;;;12.10;;
80584;SDS011;70137;56.482;9.154;2024-03-07T10:05:34;25.15;;;11.07;;
80584;SDS011;70137;56.482;9.154;2024-03-07T10:08:00;25.38;;;11.32;;
80584;SDS011;70137;56.482;9.154;2024-03-07T10:10:26;22.85;;;11.32;;
80584;SDS011;70137;56.482;9.154;2024-03-07T10:12:51;24.45;;;12.73;;
80584;SDS011;70137;56.482;9.154;2024-03-07T10:15:18;22.08;;;11.35;;
80584;SDS011;70137;56.482;9.154;2024-03-07T10:17:44;21.15;;;12.18;;
80584;SDS011;70137;56.482;9.154;2024-03-07T10:20:11;21.38;;;10.43;;
80584;SDS011;70137;56.482;9.154;2024-03-07T10:22:39;21.88;;;11.65;;
80584;SDS011;70137;56.482;9.154;2024-03-07T10:25:06;26.30;;;11.65;;
80584;SDS011;70137;56.482;9.154;2024-03-07T10:27:31;25.70;;;11.40;;
80584;SDS011;70137;56.482;9.154;2024-03-07T10:29:57;25.70;;;11.45;;
80584;SDS011;70137;56.482;9.154;2024-03-07T10:32:22;21.67;;;10.45;;
80584;SDS011;70137;56.482;9.154;2024-03-07T10:34:52;23.13;;;11.32;;
80584;SDS011;70137;56.482;9.154;2024-03-07T10:37:18;20.98;;;10.98;;
80584;SDS011;70137;56.482;9.154;2024-03-07T10:39:47;21.00;;;10.23;;
80584;SDS011;70137;56.482;9.154;2024-03-07T10:42:14;20.00;;;9.60;;
80584;SDS011;70137;56.482;9.154;2024-03-07T10:44:44;19.88;;;9.88;;
80584;SDS011;70137;56.482;9.154;2024-03-07T10:47:15;20.98;;;10.32;;
80584;SDS011;70137;56.482;9.154;2024-03-07T10:53:09;18.20;;;9.75;;
80584;SDS011;70137;56.482;9.154;2024-03-07T10:56:01;17.48;;;9.23;;
80584;SDS011;70137;56.482;9.154;2024-03-07T11:02:06;19.55;;;8.80;;
80584;SDS011;70137;56.482;9.154;2024-03-07T11:04:54;19.63;;;8.32;;
80584;SDS011;70137;56.482;9.154;2024-03-07T11:07:22;14.75;;;8.80;;
80584;SDS011;70137;56.482;9.154;2024-03-07T11:09:51;17.17;;;8.75;;
80584;SDS011;70137;56.482;9.154;2024-03-07T11:12:23;13.52;;;7.85;;
80584;SDS011;70137;56.482;9.154;2024-03-07T11:14:52;14.68;;;8.10;;
80584;SDS011;70137;56.482;9.154;2024-03-07T11:17:20;12.70;;;6.93;;
80584;SDS011;70137;56.482;9.154;2024-03-07T11:19:47;11.18;;;7.15;;
80584;SDS011;70137;56.482;9.154;2024-03-07T11:22:31;14.63;;;7.45;;
80584;SDS011;70137;56.482;9.154;2024-03-07T11:25:04;14.75;;;7.30;;
80584;SDS011;70137;56.482;9.154;2024-03-07T11:27:32;12.43;;;6.97;;
80584;SDS011;70137;56.482;9.154;2024-03-07T11:30:04;12.02;;;7.10;;
80584;SDS011;70137;56.482;9.154;2024-03-07T11:32:34;10.85;;;6.20;;
80584;SDS011;70137;56.482;9.154;2024-03-07T11:35:03;14.23;;;6.45;;
80584;SDS011;70137;56.482;9.154;2024-03-07T11:37:42;11.70;;;6.97;;
80584;SDS011;70137;56.482;9.154;2024-03-07T11:42:50;10.60;;;6.60;;
80584;SDS011;70137;56.482;9.154;2024-03-07T11:45:17;11.27;;;6.40;;
80584;SDS011;70137;56.482;9.154;2024-03-07T11:47:53;10.73;;;5.68;;
80584;SDS011;70137;56.482;9.154;2024-03-07T11:50:41;9.63;;;4.93;;
80584;SDS011;70137;56.482;9.154;2024-03-07T11:53:07;11.48;;;5.40;;
80584;SDS011;70137;56.482;9.154;2024-03-07T11:55:34;10.98;;;4.78;;
80584;SDS011;70137;56.482;9.154;2024-03-07T11:58:15;9.57;;;4.45;;
80584;SDS011;70137;56.482;9.154;2024-03-07T12:00:43;7.97;;;4.75;;
80584;SDS011;70137;56.482;9.154;2024-03-07T12:03:10;7.97;;;4.13;;
80584;SDS011;70137;56.482;9.154;2024-03-07T12:05:38;7.25;;;4.07;;
80584;SDS011;70137;56.482;9.154;2024-03-07T12:08:04;8.07;;;4.18;;
80584;SDS011;70137;56.482;9.154;2024-03-07T12:10:30;9.13;;;4.95;;
80584;SDS011;70137;56.482;9.154;2024-03-07T12:12:56;11.48;;;5.65;;
80584;SDS011;70137;56.482;9.154;2024-03-07T12:15:22;7.35;;;3.88;;
80584;SDS011;70137;56.482;9.154;2024-03-07T12:17:48;6.93;;;3.90;;
80584;SDS011;70137;56.482;9.154;2024-03-07T12:20:16;8.25;;;3.78;;
80584;SDS011;70137;56.482;9.154;2024-03-07T12:22:58;10.88;;;3.90;;
80584;SDS011;70137;56.482;9.154;2024-03-07T12:25:27;9.82;;;4.47;;
80584;SDS011;70137;56.482;9.154;2024-03-07T12:28:03;8.05;;;3.97;;
80584;SDS011;70137;56.482;9.154;2024-03-07T12:30:37;8.25;;;3.72;;
80584;SDS011;70137;56.482;9.154;2024-03-07T12:33:12;7.25;;;3.50;;
80584;SDS011;70137;56.482;9.154;2024-03-07T12:35:45;6.45;;;3.83;;
80584;SDS011;70137;56.482;9.154;2024-03-07T12:38:13;6.75;;;3.95;;
80584;SDS011;70137;56.482;9.154;2024-03-07T12:40:41;10.10;;;4.95;;
80584;SDS011;70137;56.482;9.154;2024-03-07T12:43:20;6.65;;;3.90;;
80584;SDS011;70137;56.482;9.154;2024-03-07T12:45:49;8.00;;;4.15;;
80584;SDS011;70137;56.482;9.154;2024-03-07T12:48:19;6.50;;;3.75;;
80584;SDS011;70137;56.482;9.154;2024-03-07T12:50:46;8.25;;;3.72;;
80584;SDS011;70137;56.482;9.154;2024-03-07T12:53:15;6.10;;;3.90;;
80584;SDS011;70137;56.482;9.154;2024-03-07T12:55:43;8.57;;;4.10;;
80584;SDS011;70137;56.482;9.154;2024-03-07T12:58:09;7.32;;;3.67;;
80584;SDS011;70137;56.482;9.154;2024-03-07T13:00:37;8.38;;;3.75;;
80584;SDS011;70137;56.482;9.154;2024-03-07T13:03:03;5.63;;;3.60;;
80584;SDS011;70137;56.482;9.154;2024-03-07T13:05:29;6.97;;;3.28;;
80584;SDS011;70137;56.482;9.154;2024-03-07T13:07:55;8.43;;;3.83;;
80584;SDS011;70137;56.482;9.154;2024-03-07T13:10:20;5.53;;;3.50;;
80584;SDS011;70137;56.482;9.154;2024-03-07T13:12:49;6.53;;;3.78;;
80584;SDS011;70137;56.482;9.154;2024-03-07T13:15:15;6.43;;;3.42;;
80584;SDS011;70137;56.482;9.154;2024-03-07T13:17:41;5.28;;;3.30;;
80584;SDS011;70137;56.482;9.154;2024-03-07T13:20:09;5.00;;;3.22;;
80584;SDS011;70137;56.482;9.154;2024-03-07T13:22:40;6.57;;;3.95;;
80584;SDS011;70137;56.482;9.154;2024-03-07T13:25:22;6.05;;;3.50;;
80584;SDS011;70137;56.482;9.154;2024-03-07T13:30:38;8.35;;;4.00;;
80584;SDS011;70137;56.482;9.154;2024-03-07T13:33:05;7.80;;;3.75;;
80584;SDS011;70137;56.482;9.154;2024-03-07T13:35:31;6.85;;;3.85;;
80584;SDS011;70137;56.482;9.154;2024-03-07T13:37:57;6.00;;;3.38;;
80584;SDS011;70137;56.482;9.154;2024-03-07T13:40:26;6.18;;;3.40;;
80584;SDS011;70137;56.482;9.154;2024-03-07T13:42:55;7.97;;;3.83;;
80584;SDS011;70137;56.482;9.154;2024-03-07T13:45:26;6.13;;;3.58;;
80584;SDS011;70137;56.482;9.154;2024-03-07T13:47:55;4.75;;;3.25;;
80584;SDS011;70137;56.482;9.154;2024-03-07T13:50:23;6.93;;;3.92;;
80584;SDS011;70137;56.482;9.154;2024-03-07T13:52:53;8.95;;;3.47;;
80584;SDS011;70137;56.482;9.154;2024-03-07T13:55:31;6.20;;;3.45;;
80584;SDS011;70137;56.482;9.154;2024-03-07T13:58:06;5.63;;;3.40;;
80584;SDS011;70137;56.482;9.154;2024-03-07T14:00:45;7.78;;;3.83;;
80584;SDS011;70137;56.482;9.154;2024-03-07T14:03:26;6.93;;;3.33;;
80584;SDS011;70137;56.482;9.154;2024-03-07T14:06:08;6.35;;;3.53;;
80584;SDS011;70137;56.482;9.154;2024-03-07T14:30:56;4.57;;;3.45;;
80584;SDS011;70137;56.482;9.154;2024-03-07T14:33:27;9.40;;;3.80;;
80584;SDS011;70137;56.482;9.154;2024-03-07T14:36:03;6.05;;;3.63;;
80584;SDS011;70137;56.482;9.154;2024-03-07T14:38:53;8.05;;;4.10;;
80584;SDS011;70137;56.482;9.154;2024-03-07T14:44:17;6.38;;;3.72;;
80584;SDS011;70137;56.482;9.154;2024-03-07T14:46:44;6.20;;;3.92;;
80584;SDS011;70137;56.482;9.154;2024-03-07T14:49:13;8.10;;;4.28;;
80584;SDS011;70137;56.482;9.154;2024-03-07T14:51:40;5.75;;;3.50;;
80584;SDS011;70137;56.482;9.154;2024-03-07T14:54:06;5.65;;;3.80;;
80584;SDS011;70137;56.482;9.154;2024-03-07T14:56:33;7.60;;;3.95;;
80584;SDS011;70137;56.482;9.154;2024-03-07T14:58:59;6.10;;;3.40;;
80584;SDS011;70137;56.482;9.154;2024-03-07T15:01:26;9.35;;;3.90;;
80584;SDS011;70137;56.482;9.154;2024-03-07T15:03:52;7.20;;;3.63;;
80584;SDS011;70137;56.482;9.154;2024-03-07T15:06:20;5.68;;;3.75;;
80584;SDS011;70137;56.482;9.154;2024-03-07T15:08:47;7.07;;;3.85;;
80584;SDS011;70137;56.482;9.154;2024-03-07T15:11:19;5.32;;;3.47;;